createdAt,value
2023-03-02T00:00:16.400Z,51.43
2023-03-02T00:02:46.073Z,51.59
2023-03-02T00:05:14.819Z,51.63
2023-03-02T00:07:42.817Z,51.44
2023-03-02T00:10:11.873Z,51.73
2023-03-02T00:12:40.083Z,51.90
2023-03-02T00:15:09.452Z,52.04
2023-03-02T00:17:39.027Z,51.90
2023-03-02T00:20:11.445Z,51.60
2023-03-02T00:22:42.241Z,51.50
2023-03-02T00:25:11.242Z,51.50
2023-03-02T00:27:39.381Z,51.72
2023-03-02T00:30:09.243Z,51.76
2023-03-02T00:32:39.400Z,51.93
2023-03-02T00:35:10.577Z,52.04
2023-03-02T00:37:39.085Z,51.82
2023-03-02T00:40:09.549Z,52.30
2023-03-02T00:42:38.682Z,52.09
2023-03-02T00:45:09.397Z,52.27
2023-03-02T00:47:38.052Z,52.13
2023-03-02T00:50:08.354Z,52.22
2023-03-02T00:52:36.490Z,52.63
2023-03-02T00:55:04.925Z,52.44
2023-03-02T00:57:33.050Z,52.32
2023-03-02T01:00:02.485Z,52.41
2023-03-02T01:02:39.171Z,52.24
2023-03-02T01:05:09.511Z,52.10
2023-03-02T01:07:37.509Z,52.21
2023-03-02T01:10:06.519Z,52.38
2023-03-02T01:12:34.648Z,52.41
2023-03-02T01:15:03.297Z,52.59
2023-03-02T01:17:31.331Z,52.60
2023-03-02T01:20:00.076Z,52.58
2023-03-02T01:22:30.089Z,52.71
2023-03-02T01:24:58.840Z,52.85
2023-03-02T01:27:27.094Z,52.70
2023-03-02T01:29:55.149Z,52.61
2023-03-02T01:32:23.690Z,52.68
2023-03-02T01:34:52.793Z,52.93
2023-03-02T01:37:20.939Z,52.90
2023-03-02T01:39:50.870Z,52.98
2023-03-02T01:42:19.313Z,53.33
2023-03-02T01:44:48.066Z,52.93
2023-03-02T01:47:19.024Z,53.40
2023-03-02T01:50:16.054Z,53.16
2023-03-02T01:52:44.718Z,53.01
2023-03-02T01:55:16.646Z,53.36
2023-03-02T01:57:49.048Z,53.16
2023-03-02T02:00:19.991Z,53.52
2023-03-02T02:02:48.236Z,53.15
2023-03-02T02:05:19.015Z,53.20
2023-03-02T02:07:47.927Z,53.10
2023-03-02T02:10:20.054Z,52.89
2023-03-02T02:12:48.413Z,52.88
2023-03-02T02:15:16.563Z,53.21
2023-03-02T02:17:44.616Z,53.20
2023-03-02T02:20:19.576Z,53.05
2023-03-02T02:22:54.571Z,53.05
2023-03-02T02:25:33.946Z,53.54
2023-03-02T02:28:08.536Z,53.66
2023-03-02T02:30:36.632Z,53.16
2023-03-02T02:33:05.085Z,53.26
2023-03-02T02:35:34.878Z,53.44
2023-03-02T02:38:05.539Z,53.33
2023-03-02T02:40:43.300Z,53.44
2023-03-02T02:43:20.245Z,53.59
2023-03-02T02:45:48.401Z,53.42
2023-03-02T02:48:23.084Z,53.54
2023-03-02T02:50:55.329Z,53.59
2023-03-02T02:53:25.786Z,53.72
2023-03-02T02:55:54.654Z,53.49
2023-03-02T02:58:29.765Z,53.94
2023-03-02T03:00:57.984Z,53.78
2023-03-02T03:03:30.899Z,53.85
2023-03-02T03:06:02.918Z,53.65
2023-03-02T03:08:55.948Z,53.66
2023-03-02T03:11:35.398Z,53.75
2023-03-02T03:14:07.620Z,54.13
2023-03-02T03:16:36.369Z,53.65
2023-03-02T03:19:08.398Z,53.93
2023-03-02T03:21:36.788Z,53.98
2023-03-02T03:24:05.934Z,53.94
2023-03-02T03:26:34.667Z,54.10
2023-03-02T03:29:05.265Z,54.07
2023-03-02T03:31:33.532Z,54.14
2023-03-02T03:34:03.481Z,53.69
2023-03-02T03:36:35.560Z,53.88
2023-03-02T03:39:04.101Z,54.09
2023-03-02T03:41:32.123Z,54.10
2023-03-02T03:44:00.671Z,53.68
2023-03-02T03:46:33.477Z,54.11
2023-03-02T03:49:01.943Z,53.81
2023-03-02T03:51:30.116Z,54.22
2023-03-02T03:54:01.214Z,54.23
2023-03-02T03:56:35.817Z,53.81
2023-03-02T03:59:07.385Z,54.00
2023-03-02T04:01:47.130Z,53.95
2023-03-02T04:04:17.360Z,54.25
2023-03-02T04:06:46.103Z,54.32
2023-03-02T04:09:15.952Z,53.96
2023-03-02T04:11:45.860Z,54.28
2023-03-02T04:14:14.831Z,54.05
2023-03-02T04:16:45.184Z,54.29
2023-03-02T04:19:13.985Z,53.95
2023-03-02T04:21:44.970Z,54.45
2023-03-02T04:24:14.665Z,54.34
2023-03-02T04:26:42.985Z,54.47
2023-03-02T04:29:12.255Z,54.16
2023-03-02T04:31:44.401Z,54.02
2023-03-02T04:34:15.156Z,54.00
2023-03-02T04:36:45.577Z,54.03
2023-03-02T04:39:16.518Z,54.08
2023-03-02T04:41:49.721Z,54.03
2023-03-02T04:44:18.014Z,54.28
2023-03-02T04:46:46.010Z,54.26
2023-03-02T04:49:16.785Z,54.25
2023-03-02T04:51:45.938Z,53.94
2023-03-02T04:54:16.491Z,54.06
2023-03-02T04:56:44.966Z,54.21
2023-03-02T04:59:14.220Z,54.17
2023-03-02T05:01:45.759Z,54.02
2023-03-02T05:04:13.903Z,54.09
2023-03-02T05:06:44.971Z,53.80
2023-03-02T05:09:13.033Z,54.17
2023-03-02T05:11:43.714Z,54.23
2023-03-02T05:14:13.175Z,53.82
2023-03-02T05:16:42.201Z,53.91
2023-03-02T05:19:11.404Z,53.88
2023-03-02T05:21:41.917Z,53.85
2023-03-02T05:24:11.573Z,53.85
2023-03-02T05:26:39.862Z,53.93
2023-03-02T05:29:08.159Z,53.74
2023-03-02T05:31:37.224Z,53.79
2023-03-02T05:34:06.964Z,53.62
2023-03-02T05:36:35.295Z,53.65
2023-03-02T05:39:05.148Z,53.67
2023-03-02T05:41:34.994Z,54.01
2023-03-02T05:44:03.201Z,53.65
2023-03-02T05:46:31.538Z,53.78
2023-03-02T05:49:02.160Z,53.77
2023-03-02T05:51:30.310Z,53.95
2023-03-02T05:53:58.370Z,53.88
2023-03-02T05:56:26.410Z,53.67
2023-03-02T05:58:55.861Z,53.80
2023-03-02T06:01:24.065Z,53.82
2023-03-02T06:04:00.394Z,53.70
2023-03-02T06:06:28.839Z,53.47
2023-03-02T06:08:56.748Z,53.50
2023-03-02T06:11:24.760Z,53.78
2023-03-02T06:13:52.893Z,53.67
2023-03-02T06:16:22.413Z,53.47
2023-03-02T06:18:50.731Z,53.57
2023-03-02T06:21:20.180Z,53.69
2023-03-02T06:23:48.309Z,53.60
2023-03-02T06:26:20.182Z,53.42
2023-03-02T06:28:53.613Z,53.62
2023-03-02T06:31:25.306Z,53.43
2023-03-02T06:33:53.481Z,53.50
2023-03-02T06:36:21.735Z,53.13
2023-03-02T06:38:50.453Z,53.48
2023-03-02T06:41:20.323Z,53.62
2023-03-02T06:43:48.375Z,53.56
2023-03-02T06:46:16.422Z,53.33
2023-03-02T06:48:53.118Z,53.35
2023-03-02T06:51:21.808Z,53.38
2023-03-02T06:53:51.226Z,53.13
2023-03-02T06:56:19.234Z,53.17
2023-03-02T06:58:47.224Z,53.29
2023-03-02T07:01:16.075Z,53.16
2023-03-02T07:04:24.045Z,53.18
2023-03-02T07:06:52.067Z,52.79
2023-03-02T07:09:20.235Z,52.91
2023-03-02T07:11:48.292Z,52.89
2023-03-02T07:14:17.434Z,52.88
2023-03-02T07:16:45.449Z,52.96
2023-03-02T07:19:13.885Z,52.67
2023-03-02T07:21:44.186Z,52.86
2023-03-02T07:24:12.154Z,52.82
2023-03-02T07:26:43.039Z,52.69
2023-03-02T07:29:11.060Z,52.85
2023-03-02T07:32:36.510Z,52.63
2023-03-02T07:35:07.867Z,52.66
2023-03-02T07:41:52.485Z,52.61
2023-03-02T07:44:22.945Z,52.70
2023-03-02T07:47:52.963Z,52.67
2023-03-02T07:50:22.222Z,52.83
2023-03-02T07:56:52.770Z,52.76
2023-03-02T07:59:21.886Z,52.62
2023-03-02T08:01:51.030Z,52.01
2023-03-02T08:04:19.252Z,51.94
2023-03-02T08:06:47.296Z,51.08
2023-03-02T08:09:17.193Z,51.13
2023-03-02T08:11:48.898Z,51.14
2023-03-02T08:14:24.959Z,50.83
2023-03-02T08:16:53.387Z,50.35
2023-03-02T08:19:24.301Z,49.97
2023-03-02T08:24:21.334Z,49.32
2023-03-02T08:26:50.429Z,49.45
2023-03-02T08:29:21.895Z,49.27
2023-03-02T08:31:53.209Z,49.06
2023-03-02T08:34:21.397Z,48.17
2023-03-02T08:36:51.328Z,47.96
2023-03-02T08:39:22.148Z,47.67
2023-03-02T08:41:52.613Z,47.71
2023-03-02T08:44:23.862Z,47.88
2023-03-02T08:46:52.918Z,47.33
2023-03-02T08:49:20.991Z,47.22
2023-03-02T08:51:53.511Z,47.35
2023-03-02T08:54:22.255Z,47.21
2023-03-02T08:56:50.503Z,47.11
2023-03-02T08:59:18.763Z,47.01
2023-03-02T09:01:48.534Z,47.05
2023-03-02T09:04:21.833Z,46.99
2023-03-02T09:06:50.946Z,46.48
2023-03-02T09:09:20.231Z,46.60
2023-03-02T09:11:48.406Z,45.86
2023-03-02T09:14:16.657Z,45.94
2023-03-02T09:16:45.424Z,45.88
2023-03-02T09:19:15.191Z,45.29
2023-03-02T09:21:43.432Z,45.38
2023-03-02T09:24:11.950Z,45.28
2023-03-02T09:26:41.359Z,45.09
2023-03-02T09:29:10.491Z,44.88
2023-03-02T09:31:40.916Z,44.80
2023-03-02T09:34:09.158Z,44.97
2023-03-02T09:36:40.107Z,44.79
2023-03-02T09:39:12.473Z,44.84
2023-03-02T09:42:12.694Z,43.96
2023-03-02T09:45:01.996Z,43.99
2023-03-02T09:47:36.080Z,43.79
2023-03-02T09:50:12.284Z,44.07
2023-03-02T09:52:44.323Z,43.97
2023-03-02T09:59:15.047Z,43.40
2023-03-02T10:05:58.737Z,43.49
2023-03-02T10:09:20.003Z,42.62
2023-03-02T10:30:16.227Z,42.17
2023-03-02T10:33:35.405Z,42.08
2023-03-02T10:37:07.873Z,42.23
2023-03-02T10:39:56.859Z,41.37
2023-03-02T10:42:57.882Z,41.21
2023-03-02T10:45:42.258Z,40.99
2023-03-02T10:49:21.188Z,41.45
2023-03-02T10:53:22.966Z,41.22
2023-03-02T11:03:32.494Z,40.33
2023-03-02T11:35:27.492Z,41.80
2023-03-02T11:48:21.538Z,37.28
2023-03-02T11:59:37.204Z,37.61
2023-03-02T12:13:43.136Z,38.30
2023-03-02T12:20:31.762Z,36.94
2023-03-02T12:23:29.082Z,36.86
2023-03-02T12:26:13.297Z,36.77
2023-03-02T12:28:59.800Z,37.24
2023-03-02T12:32:08.022Z,37.73
2023-03-02T12:34:45.158Z,37.83
2023-03-02T12:37:46.976Z,38.95
2023-03-02T12:40:54.742Z,38.08
2023-03-02T12:44:03.650Z,36.39
2023-03-02T12:46:50.699Z,36.23
2023-03-02T12:49:50.664Z,37.29
2023-03-02T12:55:45.123Z,38.37
2023-03-02T12:58:49.218Z,37.62
2023-03-02T13:01:41.880Z,37.83
2023-03-02T13:04:38.340Z,36.68
2023-03-02T13:10:41.351Z,34.45
2023-03-02T13:13:27.341Z,34.02
2023-03-02T13:16:03.895Z,34.39
2023-03-02T13:18:39.881Z,34.03
2023-03-02T13:21:41.576Z,33.62
2023-03-02T13:24:38.421Z,33.53
2023-03-02T13:27:25.835Z,32.62
2023-03-02T13:30:01.078Z,32.64
2023-03-02T13:32:41.254Z,32.51
2023-03-02T13:35:40.917Z,30.53
2023-03-02T13:38:26.111Z,31.51
2023-03-02T13:41:02.609Z,31.86
2023-03-02T13:43:43.323Z,30.68
2023-03-02T13:46:36.665Z,30.82
2023-03-02T13:50:29.894Z,30.29
2023-03-02T13:53:08.613Z,29.52
2023-03-02T13:55:39.138Z,29.55
2023-03-02T13:58:20.422Z,29.83
2023-03-02T14:00:53.309Z,30.33
2023-03-02T14:03:27.843Z,30.33
2023-03-02T14:06:03.310Z,30.87
2023-03-02T14:09:11.357Z,31.68
2023-03-02T14:15:53.692Z,32.67
2023-03-02T14:24:04.818Z,33.68
2023-03-02T15:38:12.466Z,38.27
2023-03-02T16:26:19.085Z,29.99
2023-03-02T16:51:36.758Z,32.49
2023-03-02T16:54:21.177Z,32.34
2023-03-02T16:56:51.630Z,32.09
2023-03-02T16:59:22.101Z,31.53
2023-03-02T17:01:55.060Z,31.74
2023-03-02T17:04:32.030Z,31.68
2023-03-02T17:07:20.519Z,31.95
2023-03-02T17:10:20.082Z,32.16
2023-03-02T17:13:57.681Z,31.76
2023-03-02T18:17:48.342Z,39.30
2023-03-02T18:57:30.786Z,42.75
2023-03-02T19:09:23.912Z,43.62
2023-03-02T19:11:52.388Z,43.75
2023-03-02T19:14:20.482Z,43.97
2023-03-02T19:16:48.506Z,44.12
2023-03-02T19:19:16.455Z,43.89
2023-03-02T19:21:44.508Z,44.19
2023-03-02T19:24:12.705Z,44.66
2023-03-02T19:26:42.249Z,44.47
2023-03-02T19:29:10.288Z,44.53
2023-03-02T19:31:39.361Z,44.82
2023-03-02T19:34:07.409Z,44.74
2023-03-02T19:36:35.344Z,44.82
2023-03-02T19:39:03.371Z,44.76
2023-03-02T19:41:31.425Z,44.84
2023-03-02T19:44:01.992Z,44.74
2023-03-02T19:46:29.935Z,45.03
2023-03-02T19:48:58.003Z,45.36
2023-03-02T19:51:26.058Z,45.30
2023-03-02T19:53:54.779Z,45.54
2023-03-02T19:56:26.757Z,45.46
2023-03-02T19:58:54.860Z,45.69
2023-03-02T20:01:25.094Z,45.72
2023-03-02T20:03:54.364Z,46.23
2023-03-02T20:06:22.756Z,46.34
2023-03-02T20:08:51.007Z,46.32
2023-03-02T20:11:19.162Z,46.50
2023-03-02T20:13:48.295Z,46.42
2023-03-02T20:16:16.499Z,46.41
2023-03-02T20:18:45.842Z,46.55
2023-03-02T20:21:13.924Z,46.74
2023-03-02T20:23:43.166Z,46.80
2023-03-02T20:26:12.532Z,46.52
2023-03-02T20:28:40.726Z,46.39
2023-03-02T20:31:11.923Z,46.84
2023-03-02T20:33:42.637Z,46.65
2023-03-02T20:36:12.640Z,46.83
2023-03-02T20:38:41.819Z,46.96
2023-03-02T20:41:10.734Z,47.09
2023-03-02T20:43:38.947Z,46.81
2023-03-02T20:46:07.464Z,47.18
2023-03-02T20:48:35.530Z,46.75
2023-03-02T20:51:03.985Z,47.11
2023-03-02T20:53:33.685Z,46.84
2023-03-02T20:56:01.709Z,46.66
2023-03-02T20:58:30.012Z,46.82
2023-03-02T21:03:43.876Z,47.43
2023-03-02T21:06:13.060Z,47.10
2023-03-02T21:08:42.549Z,47.37
2023-03-02T21:11:11.522Z,47.68
2023-03-02T21:13:39.986Z,47.44
2023-03-02T21:16:09.511Z,47.52
2023-03-02T21:18:38.353Z,47.63
2023-03-02T21:21:07.762Z,47.78
2023-03-02T21:23:35.818Z,47.57
2023-03-02T21:26:05.535Z,47.66
2023-03-02T21:28:33.555Z,47.79
2023-03-02T21:31:01.509Z,47.67
2023-03-02T21:33:29.801Z,47.90
2023-03-02T21:35:57.957Z,47.79
2023-03-02T21:38:25.952Z,48.09
2023-03-02T21:40:54.093Z,48.23
2023-03-02T21:43:23.662Z,48.27
2023-03-02T21:45:51.720Z,48.08
2023-03-02T21:48:22.559Z,48.46
2023-03-02T21:50:51.115Z,48.21
2023-03-02T21:53:19.628Z,48.26
2023-03-02T21:55:47.876Z,47.99
2023-03-02T21:58:16.943Z,48.01
2023-03-02T22:00:46.636Z,48.17
2023-03-02T22:03:14.980Z,48.53
2023-03-02T22:05:43.108Z,48.42
2023-03-02T22:08:11.383Z,48.65
2023-03-02T22:10:40.937Z,48.66
2023-03-02T22:13:17.512Z,48.95
2023-03-02T22:15:47.402Z,48.89
2023-03-02T22:18:16.080Z,49.06
2023-03-02T22:20:44.966Z,48.91
2023-03-02T22:23:13.676Z,48.79
2023-03-02T22:25:43.474Z,48.87
2023-03-02T22:28:18.376Z,49.09
2023-03-02T22:30:47.882Z,49.23
2023-03-02T22:33:18.466Z,48.99
2023-03-02T22:35:46.671Z,49.27
2023-03-02T22:38:17.727Z,48.73
2023-03-02T22:40:45.758Z,49.08
2023-03-02T22:43:16.677Z,49.22
2023-03-02T22:45:44.748Z,48.81
2023-03-02T22:48:16.984Z,48.78
2023-03-02T22:50:45.433Z,48.73
2023-03-02T22:53:28.173Z,48.76
2023-03-02T22:55:59.049Z,48.70
2023-03-02T22:58:42.551Z,48.70
2023-03-02T23:01:18.227Z,49.00
2023-03-02T23:03:48.038Z,48.97
2023-03-02T23:06:30.603Z,48.62
2023-03-02T23:09:00.613Z,48.63
2023-03-02T23:11:28.766Z,48.77
2023-03-02T23:13:56.781Z,49.03
2023-03-02T23:16:26.220Z,49.31
2023-03-02T23:18:57.372Z,49.26
2023-03-02T23:21:28.441Z,49.50
2023-03-02T23:23:56.613Z,48.92
2023-03-02T23:26:24.854Z,48.97
2023-03-02T23:28:54.026Z,48.78
2023-03-02T23:31:22.390Z,48.97
2023-03-02T23:33:50.612Z,48.93
2023-03-02T23:36:20.893Z,49.30
2023-03-02T23:38:50.018Z,49.53
2023-03-02T23:41:18.373Z,49.36
2023-03-02T23:43:46.455Z,49.28
2023-03-02T23:46:14.654Z,49.29
2023-03-02T23:48:42.892Z,49.29
2023-03-02T23:51:10.889Z,49.05
2023-03-02T23:53:40.297Z,49.55
2023-03-02T23:56:08.826Z,49.88
2023-03-02T23:58:36.911Z,49.75
